sensor_id;sensor_type;location;lat;lon;timestamp;P1;durP1;ratioP1;P2;durP2;ratioP2
11490;SDS011;5802;52.832;4.758;2023-09-19T00:02:16;1.25;;;0.90;;
11490;SDS011;5802;52.832;4.758;2023-09-19T00:04:44;2.05;;;1.20;;
11490;SDS011;5802;52.832;4.758;2023-09-19T00:07:11;1.70;;;0.90;;
11490;SDS011;5802;52.832;4.758;2023-09-19T00:09:39;1.88;;;0.90;;
11490;SDS011;5802;52.832;4.758;2023-09-19T00:12:06;2.80;;;1.00;;
11490;SDS011;5802;52.832;4.758;2023-09-19T00:14:34;3.03;;;1.00;;
11490;SDS011;5802;52.832;4.758;2023-09-19T00:17:02;1.92;;;1.20;;
11490;SDS011;5802;52.832;4.758;2023-09-19T00:19:33;1.42;;;0.90;;
11490;SDS011;5802;52.832;4.758;2023-09-19T00:21:59;1.55;;;1.00;;
11490;SDS011;5802;52.832;4.758;2023-09-19T00:24:27;4.60;;;1.02;;
11490;SDS011;5802;52.832;4.758;2023-09-19T00:26:54;1.63;;;1.20;;
11490;SDS011;5802;52.832;4.758;2023-09-19T00:29:21;1.23;;;1.00;;
11490;SDS011;5802;52.832;4.758;2023-09-19T00:31:48;1.77;;;1.02;;
11490;SDS011;5802;52.832;4.758;2023-09-19T00:34:16;1.73;;;1.05;;
11490;SDS011;5802;52.832;4.758;2023-09-19T00:36:43;2.80;;;1.20;;
11490;SDS011;5802;52.832;4.758;2023-09-19T00:39:10;3.80;;;0.98;;
11490;SDS011;5802;52.832;4.758;2023-09-19T00:41:36;2.38;;;1.10;;
11490;SDS011;5802;52.832;4.758;2023-09-19T00:44:03;1.23;;;0.73;;
11490;SDS011;5802;52.832;4.758;2023-09-19T00:46:31;1.38;;;1.08;;
11490;SDS011;5802;52.832;4.758;2023-09-19T00:48:58;2.97;;;1.23;;
11490;SDS011;5802;52.832;4.758;2023-09-19T00:51:26;1.83;;;0.90;;
11490;SDS011;5802;52.832;4.758;2023-09-19T00:53:53;1.15;;;0.82;;
11490;SDS011;5802;52.832;4.758;2023-09-19T00:56:20;1.23;;;0.70;;
11490;SDS011;5802;52.832;4.758;2023-09-19T00:58:48;1.55;;;1.00;;
11490;SDS011;5802;52.832;4.758;2023-09-19T01:01:15;1.67;;;0.88;;
11490;SDS011;5802;52.832;4.758;2023-09-19T01:03:42;2.63;;;0.90;;
11490;SDS011;5802;52.832;4.758;2023-09-19T01:06:10;1.70;;;1.10;;
11490;SDS011;5802;52.832;4.758;2023-09-19T01:08:38;2.17;;;1.08;;
11490;SDS011;5802;52.832;4.758;2023-09-19T01:11:08;1.95;;;0.90;;
11490;SDS011;5802;52.832;4.758;2023-09-19T01:13:43;1.17;;;0.75;;
11490;SDS011;5802;52.832;4.758;2023-09-19T01:16:19;2.80;;;1.10;;
11490;SDS011;5802;52.832;4.758;2023-09-19T01:18:55;2.35;;;1.30;;
11490;SDS011;5802;52.832;4.758;2023-09-19T01:21:35;2.55;;;1.10;;
11490;SDS011;5802;52.832;4.758;2023-09-19T01:24:28;1.92;;;0.93;;
11490;SDS011;5802;52.832;4.758;2023-09-19T01:27:17;3.13;;;1.00;;
11490;SDS011;5802;52.832;4.758;2023-09-19T01:30:07;2.20;;;1.00;;
11490;SDS011;5802;52.832;4.758;2023-09-19T01:32:36;3.45;;;1.20;;
11490;SDS011;5802;52.832;4.758;2023-09-19T01:35:06;1.25;;;0.90;;
11490;SDS011;5802;52.832;4.758;2023-09-19T01:37:37;2.13;;;1.00;;
11490;SDS011;5802;52.832;4.758;2023-09-19T01:40:06;2.00;;;1.02;;
11490;SDS011;5802;52.832;4.758;2023-09-19T01:42:43;3.20;;;1.20;;
11490;SDS011;5802;52.832;4.758;2023-09-19T01:45:15;4.90;;;1.08;;
11490;SDS011;5802;52.832;4.758;2023-09-19T01:47:50;2.25;;;0.93;;
11490;SDS011;5802;52.832;4.758;2023-09-19T01:50:23;2.78;;;1.20;;
11490;SDS011;5802;52.832;4.758;2023-09-19T01:52:57;2.03;;;1.00;;
11490;SDS011;5802;52.832;4.758;2023-09-19T01:55:29;2.22;;;1.10;;
11490;SDS011;5802;52.832;4.758;2023-09-19T01:58:04;2.75;;;0.88;;
11490;SDS011;5802;52.832;4.758;2023-09-19T02:00:36;4.47;;;1.05;;
11490;SDS011;5802;52.832;4.758;2023-09-19T02:03:07;1.52;;;0.80;;
11490;SDS011;5802;52.832;4.758;2023-09-19T02:05:35;1.42;;;0.90;;
11490;SDS011;5802;52.832;4.758;2023-09-19T02:08:02;1.67;;;0.90;;
11490;SDS011;5802;52.832;4.758;2023-09-19T02:10:29;2.15;;;1.25;;
11490;SDS011;5802;52.832;4.758;2023-09-19T02:12:55;1.95;;;0.90;;
11490;SDS011;5802;52.832;4.758;2023-09-19T02:15:24;2.47;;;1.17;;
11490;SDS011;5802;52.832;4.758;2023-09-19T02:17:52;2.22;;;0.90;;
11490;SDS011;5802;52.832;4.758;2023-09-19T02:20:18;2.33;;;0.95;;
11490;SDS011;5802;52.832;4.758;2023-09-19T02:22:46;2.50;;;0.90;;
11490;SDS011;5802;52.832;4.758;2023-09-19T02:25:15;3.20;;;1.20;;
11490;SDS011;5802;52.832;4.758;2023-09-19T02:27:41;1.65;;;0.88;;
11490;SDS011;5802;52.832;4.758;2023-09-19T02:30:08;1.13;;;0.82;;
11490;SDS011;5802;52.832;4.758;2023-09-19T02:32:36;2.17;;;1.35;;
11490;SDS011;5802;52.832;4.758;2023-09-19T02:35:06;1.65;;;0.90;;
11490;SDS011;5802;52.832;4.758;2023-09-19T02:37:35;1.13;;;0.80;;
11490;SDS011;5802;52.832;4.758;2023-09-19T02:40:02;2.28;;;0.90;;
11490;SDS011;5802;52.832;4.758;2023-09-19T02:42:43;2.38;;;1.17;;
11490;SDS011;5802;52.832;4.758;2023-09-19T02:45:14;3.17;;;1.00;;
11490;SDS011;5802;52.832;4.758;2023-09-19T02:47:42;2.85;;;0.80;;
11490;SDS011;5802;52.832;4.758;2023-09-19T02:50:10;1.70;;;1.00;;
11490;SDS011;5802;52.832;4.758;2023-09-19T02:52:38;1.85;;;1.00;;
11490;SDS011;5802;52.832;4.758;2023-09-19T02:55:08;1.42;;;0.93;;
11490;SDS011;5802;52.832;4.758;2023-09-19T02:57:35;2.40;;;1.00;;
11490;SDS011;5802;52.832;4.758;2023-09-19T03:00:06;1.65;;;1.00;;
11490;SDS011;5802;52.832;4.758;2023-09-19T03:02:35;1.65;;;0.90;;
11490;SDS011;5802;52.832;4.758;2023-09-19T03:05:02;2.25;;;1.02;;
11490;SDS011;5802;52.832;4.758;2023-09-19T03:07:31;1.23;;;0.73;;
11490;SDS011;5802;52.832;4.758;2023-09-19T03:09:58;2.97;;;1.00;;
11490;SDS011;5802;52.832;4.758;2023-09-19T03:12:25;2.42;;;1.08;;
11490;SDS011;5802;52.832;4.758;2023-09-19T03:14:52;2.78;;;0.90;;
11490;SDS011;5802;52.832;4.758;2023-09-19T03:17:18;2.45;;;1.13;;
11490;SDS011;5802;52.832;4.758;2023-09-19T03:19:46;1.75;;;0.90;;
11490;SDS011;5802;52.832;4.758;2023-09-19T03:22:13;1.95;;;0.90;;
11490;SDS011;5802;52.832;4.758;2023-09-19T03:24:52;1.27;;;0.82;;
11490;SDS011;5802;52.832;4.758;2023-09-19T03:27:19;4.22;;;1.00;;
11490;SDS011;5802;52.832;4.758;2023-09-19T03:29:46;1.73;;;0.80;;
11490;SDS011;5802;52.832;4.758;2023-09-19T03:32:13;1.92;;;1.10;;
11490;SDS011;5802;52.832;4.758;2023-09-19T03:34:40;2.20;;;1.00;;
11490;SDS011;5802;52.832;4.758;2023-09-19T03:37:08;3.35;;;1.10;;
11490;SDS011;5802;52.832;4.758;2023-09-19T03:39:35;2.10;;;0.90;;
11490;SDS011;5802;52.832;4.758;2023-09-19T03:42:03;2.50;;;1.02;;
11490;SDS011;5802;52.832;4.758;2023-09-19T03:44:32;1.25;;;0.82;;
11490;SDS011;5802;52.832;4.758;2023-09-19T03:46:58;2.00;;;1.10;;
11490;SDS011;5802;52.832;4.758;2023-09-19T03:49:25;1.73;;;0.90;;
11490;SDS011;5802;52.832;4.758;2023-09-19T03:51:52;1.65;;;0.95;;
11490;SDS011;5802;52.832;4.758;2023-09-19T03:54:18;3.20;;;1.00;;
11490;SDS011;5802;52.832;4.758;2023-09-19T03:56:45;1.85;;;0.90;;
11490;SDS011;5802;52.832;4.758;2023-09-19T03:59:13;1.70;;;0.65;;
11490;SDS011;5802;52.832;4.758;2023-09-19T04:01:40;2.75;;;1.05;;
11490;SDS011;5802;52.832;4.758;2023-09-19T04:04:08;3.15;;;1.33;;
11490;SDS011;5802;52.832;4.758;2023-09-19T04:06:34;2.47;;;1.00;;
11490;SDS011;5802;52.832;4.758;2023-09-19T04:09:01;1.52;;;1.00;;
11490;SDS011;5802;52.832;4.758;2023-09-19T04:11:29;1.75;;;0.80;;
11490;SDS011;5802;52.832;4.758;2023-09-19T04:13:56;4.68;;;1.20;;
11490;SDS011;5802;52.832;4.758;2023-09-19T04:16:24;2.83;;;1.10;;
11490;SDS011;5802;52.832;4.758;2023-09-19T04:18:50;2.58;;;1.20;;
11490;SDS011;5802;52.832;4.758;2023-09-19T04:21:17;1.98;;;0.95;;
11490;SDS011;5802;52.832;4.758;2023-09-19T04:23:44;1.67;;;1.00;;
11490;SDS011;5802;52.832;4.758;2023-09-19T04:26:10;1.63;;;1.05;;
11490;SDS011;5802;52.832;4.758;2023-09-19T04:28:38;2.72;;;1.10;;
11490;SDS011;5802;52.832;4.758;2023-09-19T04:31:05;2.50;;;1.00;;
11490;SDS011;5802;52.832;4.758;2023-09-19T04:33:35;2.20;;;1.00;;
11490;SDS011;5802;52.832;4.758;2023-09-19T04:36:01;3.20;;;1.10;;
11490;SDS011;5802;52.832;4.758;2023-09-19T04:38:30;1.30;;;0.70;;
11490;SDS011;5802;52.832;4.758;2023-09-19T04:40:57;2.55;;;1.20;;
11490;SDS011;5802;52.832;4.758;2023-09-19T04:43:24;1.52;;;0.88;;
11490;SDS011;5802;52.832;4.758;2023-09-19T04:45:51;1.55;;;0.95;;
11490;SDS011;5802;52.832;4.758;2023-09-19T04:48:20;2.25;;;1.00;;
11490;SDS011;5802;52.832;4.758;2023-09-19T04:50:50;4.53;;;1.17;;
11490;SDS011;5802;52.832;4.758;2023-09-19T04:53:17;3.03;;;1.15;;
11490;SDS011;5802;52.832;4.758;2023-09-19T04:55:49;2.40;;;1.00;;
11490;SDS011;5802;52.832;4.758;2023-09-19T04:58:17;1.75;;;0.88;;
11490;SDS011;5802;52.832;4.758;2023-09-19T05:00:44;2.65;;;0.98;;
11490;SDS011;5802;52.832;4.758;2023-09-19T05:03:11;2.20;;;1.05;;
11490;SDS011;5802;52.832;4.758;2023-09-19T05:05:37;2.30;;;0.98;;
11490;SDS011;5802;52.832;4.758;2023-09-19T05:08:07;3.30;;;1.02;;
11490;SDS011;5802;52.832;4.758;2023-09-19T05:10:34;1.67;;;0.98;;
11490;SDS011;5802;52.832;4.758;2023-09-19T05:13:02;1.92;;;0.95;;
11490;SDS011;5802;52.832;4.758;2023-09-19T05:15:29;3.53;;;0.90;;
11490;SDS011;5802;52.832;4.758;2023-09-19T05:17:56;3.22;;;1.00;;
11490;SDS011;5802;52.832;4.758;2023-09-19T05:20:23;2.35;;;1.20;;
11490;SDS011;5802;52.832;4.758;2023-09-19T05:22:57;2.13;;;1.15;;
11490;SDS011;5802;52.832;4.758;2023-09-19T05:25:28;1.10;;;0.80;;
11490;SDS011;5802;52.832;4.758;2023-09-19T05:27:56;1.40;;;0.73;;
11490;SDS011;5802;52.832;4.758;2023-09-19T05:30:23;2.42;;;1.10;;
11490;SDS011;5802;52.832;4.758;2023-09-19T05:32:52;2.30;;;1.20;;
11490;SDS011;5802;52.832;4.758;2023-09-19T05:35:19;3.88;;;1.33;;
11490;SDS011;5802;52.832;4.758;2023-09-19T05:37:46;3.20;;;1.05;;
11490;SDS011;5802;52.832;4.758;2023-09-19T05:40:16;2.58;;;1.10;;
11490;SDS011;5802;52.832;4.758;2023-09-19T05:42:44;3.83;;;1.00;;
11490;SDS011;5802;52.832;4.758;2023-09-19T05:45:11;1.92;;;0.93;;
11490;SDS011;5802;52.832;4.758;2023-09-19T05:47:38;2.15;;;1.08;;
11490;SDS011;5802;52.832;4.758;2023-09-19T05:50:10;1.45;;;0.68;;
11490;SDS011;5802;52.832;4.758;2023-09-19T05:52:38;3.05;;;1.00;;
11490;SDS011;5802;52.832;4.758;2023-09-19T05:55:06;2.17;;;0.95;;
11490;SDS011;5802;52.832;4.758;2023-09-19T05:57:33;2.47;;;0.90;;
11490;SDS011;5802;52.832;4.758;2023-09-19T06:00:01;1.98;;;1.10;;
11490;SDS011;5802;52.832;4.758;2023-09-19T06:02:33;3.22;;;1.30;;
11490;SDS011;5802;52.832;4.758;2023-09-19T06:05:00;2.28;;;1.00;;
11490;SDS011;5802;52.832;4.758;2023-09-19T06:07:28;3.50;;;1.38;;
11490;SDS011;5802;52.832;4.758;2023-09-19T06:10:01;2.92;;;1.05;;
11490;SDS011;5802;52.832;4.758;2023-09-19T06:12:30;2.35;;;1.10;;
11490;SDS011;5802;52.832;4.758;2023-09-19T06:14:58;2.55;;;1.30;;
11490;SDS011;5802;52.832;4.758;2023-09-19T06:17:26;1.40;;;0.90;;
11490;SDS011;5802;52.832;4.758;2023-09-19T06:19:53;4.88;;;1.20;;
11490;SDS011;5802;52.832;4.758;2023-09-19T06:22:21;3.03;;;1.00;;
11490;SDS011;5802;52.832;4.758;2023-09-19T06:24:49;2.47;;;1.40;;
11490;SDS011;5802;52.832;4.758;2023-09-19T06:27:15;2.55;;;1.17;;
11490;SDS011;5802;52.832;4.758;2023-09-19T06:29:42;2.47;;;1.25;;
11490;SDS011;5802;52.832;4.758;2023-09-19T06:32:09;2.45;;;1.30;;
11490;SDS011;5802;52.832;4.758;2023-09-19T06:34:37;3.33;;;1.60;;
11490;SDS011;5802;52.832;4.758;2023-09-19T06:37:04;3.65;;;1.25;;
11490;SDS011;5802;52.832;4.758;2023-09-19T06:39:31;1.75;;;0.90;;
11490;SDS011;5802;52.832;4.758;2023-09-19T06:41:57;3.42;;;1.30;;
11490;SDS011;5802;52.832;4.758;2023-09-19T06:44:26;3.33;;;1.23;;
11490;SDS011;5802;52.832;4.758;2023-09-19T06:46:54;3.42;;;1.30;;
11490;SDS011;5802;52.832;4.758;2023-09-19T06:49:21;3.17;;;1.20;;
11490;SDS011;5802;52.832;4.758;2023-09-19T06:51:49;2.13;;;1.02;;
11490;SDS011;5802;52.832;4.758;2023-09-19T06:54:16;5.70;;;1.50;;
11490;SDS011;5802;52.832;4.758;2023-09-19T06:56:43;4.32;;;1.10;;
11490;SDS011;5802;52.832;4.758;2023-09-19T06:59:09;3.20;;;1.48;;
11490;SDS011;5802;52.832;4.758;2023-09-19T07:01:39;2.90;;;1.30;;
11490;SDS011;5802;52.832;4.758;2023-09-19T07:04:06;2.45;;;1.25;;
11490;SDS011;5802;52.832;4.758;2023-09-19T07:06:33;3.45;;;1.35;;
11490;SDS011;5802;52.832;4.758;2023-09-19T07:09:01;4.05;;;1.25;;
11490;SDS011;5802;52.832;4.758;2023-09-19T07:11:28;2.92;;;1.23;;
11490;SDS011;5802;52.832;4.758;2023-09-19T07:13:56;2.63;;;1.30;;
11490;SDS011;5802;52.832;4.758;2023-09-19T07:16:23;2.75;;;1.30;;
11490;SDS011;5802;52.832;4.758;2023-09-19T07:18:54;3.30;;;1.40;;
11490;SDS011;5802;52.832;4.758;2023-09-19T07:21:21;3.78;;;1.17;;
11490;SDS011;5802;52.832;4.758;2023-09-19T07:23:48;4.32;;;1.30;;
11490;SDS011;5802;52.832;4.758;2023-09-19T07:26:16;3.38;;;1.35;;
11490;SDS011;5802;52.832;4.758;2023-09-19T07:28:42;3.60;;;1.45;;
11490;SDS011;5802;52.832;4.758;2023-09-19T07:31:09;3.22;;;1.40;;
11490;SDS011;5802;52.832;4.758;2023-09-19T07:33:38;2.95;;;1.55;;
11490;SDS011;5802;52.832;4.758;2023-09-19T07:36:05;2.03;;;1.10;;
11490;SDS011;5802;52.832;4.758;2023-09-19T07:38:35;3.25;;;1.40;;
11490;SDS011;5802;52.832;4.758;2023-09-19T07:41:02;2.67;;;1.40;;
11490;SDS011;5802;52.832;4.758;2023-09-19T07:43:31;5.05;;;1.58;;
11490;SDS011;5802;52.832;4.758;2023-09-19T07:46:02;5.95;;;1.58;;
11490;SDS011;5802;52.832;4.758;2023-09-19T07:48:31;4.20;;;1.58;;
11490;SDS011;5802;52.832;4.758;2023-09-19T07:51:01;9.20;;;1.65;;
11490;SDS011;5802;52.832;4.758;2023-09-19T07:53:28;3.92;;;1.85;;
11490;SDS011;5802;52.832;4.758;2023-09-19T07:56:03;4.32;;;1.60;;
11490;SDS011;5802;52.832;4.758;2023-09-19T07:58:32;3.17;;;1.40;;
11490;SDS011;5802;52.832;4.758;2023-09-19T08:01:03;4.05;;;1.45;;
11490;SDS011;5802;52.832;4.758;2023-09-19T08:03:31;3.22;;;1.50;;
11490;SDS011;5802;52.832;4.758;2023-09-19T08:05:58;3.85;;;1.55;;
11490;SDS011;5802;52.832;4.758;2023-09-19T08:08:25;3.13;;;1.48;;
11490;SDS011;5802;52.832;4.758;2023-09-19T08:10:52;4.95;;;1.40;;
11490;SDS011;5802;52.832;4.758;2023-09-19T08:13:21;2.95;;;1.33;;
11490;SDS011;5802;52.832;4.758;2023-09-19T08:15:49;3.20;;;1.40;;
11490;SDS011;5802;52.832;4.758;2023-09-19T08:18:18;3.75;;;1.30;;
11490;SDS011;5802;52.832;4.758;2023-09-19T08:20:49;5.85;;;1.70;;
11490;SDS011;5802;52.832;4.758;2023-09-19T08:23:16;2.75;;;1.73;;
11490;SDS011;5802;52.832;4.758;2023-09-19T08:25:45;5.47;;;1.80;;
11490;SDS011;5802;52.832;4.758;2023-09-19T08:28:12;3.35;;;1.60;;
11490;SDS011;5802;52.832;4.758;2023-09-19T08:30:42;5.28;;;1.63;;
11490;SDS011;5802;52.832;4.758;2023-09-19T08:33:10;4.28;;;1.60;;
11490;SDS011;5802;52.832;4.758;2023-09-19T08:35:40;4.38;;;1.58;;
11490;SDS011;5802;52.832;4.758;2023-09-19T08:38:08;7.90;;;1.60;;
11490;SDS011;5802;52.832;4.758;2023-09-19T08:40:36;3.65;;;1.33;;
11490;SDS011;5802;52.832;4.758;2023-09-19T08:43:04;2.90;;;1.55;;
11490;SDS011;5802;52.832;4.758;2023-09-19T08:45:32;4.80;;;1.52;;
11490;SDS011;5802;52.832;4.758;2023-09-19T08:48:00;4.70;;;1.13;;
11490;SDS011;5802;52.832;4.758;2023-09-19T08:50:43;7.07;;;1.80;;
11490;SDS011;5802;52.832;4.758;2023-09-19T08:53:15;5.07;;;1.90;;
11490;SDS011;5802;52.832;4.758;2023-09-19T08:55:48;7.57;;;2.03;;
11490;SDS011;5802;52.832;4.758;2023-09-19T08:58:19;5.07;;;1.95;;
11490;SDS011;5802;52.832;4.758;2023-09-19T09:00:47;8.55;;;2.33;;
11490;SDS011;5802;52.832;4.758;2023-09-19T09:03:16;5.15;;;1.92;;
11490;SDS011;5802;52.832;4.758;2023-09-19T09:05:47;6.82;;;1.90;;
11490;SDS011;5802;52.832;4.758;2023-09-19T09:08:17;6.55;;;1.85;;
11490;SDS011;5802;52.832;4.758;2023-09-19T09:10:46;6.80;;;2.00;;
11490;SDS011;5802;52.832;4.758;2023-09-19T09:13:13;6.40;;;2.03;;
11490;SDS011;5802;52.832;4.758;2023-09-19T09:15:40;7.32;;;2.42;;
11490;SDS011;5802;52.832;4.758;2023-09-19T09:18:09;6.75;;;2.25;;
11490;SDS011;5802;52.832;4.758;2023-09-19T09:20:36;6.90;;;1.98;;
11490;SDS011;5802;52.832;4.758;2023-09-19T09:23:04;4.45;;;1.80;;
11490;SDS011;5802;52.832;4.758;2023-09-19T09:25:47;5.85;;;1.70;;
11490;SDS011;5802;52.832;4.758;2023-09-19T09:28:19;6.55;;;2.28;;
11490;SDS011;5802;52.832;4.758;2023-09-19T09:30:47;8.93;;;2.35;;
11490;SDS011;5802;52.832;4.758;2023-09-19T09:33:14;7.22;;;1.85;;
11490;SDS011;5802;52.832;4.758;2023-09-19T09:35:48;5.05;;;1.70;;
11490;SDS011;5802;52.832;4.758;2023-09-19T09:38:18;7.90;;;2.13;;
11490;SDS011;5802;52.832;4.758;2023-09-19T09:40:45;6.18;;;1.73;;
11490;SDS011;5802;52.832;4.758;2023-09-19T09:43:27;4.10;;;1.77;;
11490;SDS011;5802;52.832;4.758;2023-09-19T09:46:08;8.57;;;1.98;;
11490;SDS011;5802;52.832;4.758;2023-09-19T09:48:56;7.60;;;1.95;;
11490;SDS011;5802;52.832;4.758;2023-09-19T09:51:37;8.18;;;2.15;;
11490;SDS011;5802;52.832;4.758;2023-09-19T09:54:12;9.05;;;2.20;;
11490;SDS011;5802;52.832;4.758;2023-09-19T09:56:53;8.65;;;2.33;;
11490;SDS011;5802;52.832;4.758;2023-09-19T09:59:23;5.18;;;1.90;;
11490;SDS011;5802;52.832;4.758;2023-09-19T10:02:11;3.85;;;1.63;;
11490;SDS011;5802;52.832;4.758;2023-09-19T10:04:41;7.30;;;2.05;;
11490;SDS011;5802;52.832;4.758;2023-09-19T10:07:24;7.97;;;2.17;;
11490;SDS011;5802;52.832;4.758;2023-09-19T10:09:59;12.98;;;2.00;;
11490;SDS011;5802;52.832;4.758;2023-09-19T10:12:34;12.80;;;2.35;;
11490;SDS011;5802;52.832;4.758;2023-09-19T10:15:04;10.23;;;2.25;;
11490;SDS011;5802;52.832;4.758;2023-09-19T10:17:36;7.68;;;2.67;;
11490;SDS011;5802;52.832;4.758;2023-09-19T10:20:03;11.20;;;2.83;;
11490;SDS011;5802;52.832;4.758;2023-09-19T10:22:42;8.98;;;3.00;;
11490;SDS011;5802;52.832;4.758;2023-09-19T10:25:12;12.18;;;2.60;;
11490;SDS011;5802;52.832;4.758;2023-09-19T10:27:39;12.52;;;3.05;;
11490;SDS011;5802;52.832;4.758;2023-09-19T10:30:08;10.50;;;2.72;;
11490;SDS011;5802;52.832;4.758;2023-09-19T10:32:36;11.88;;;3.03;;
11490;SDS011;5802;52.832;4.758;2023-09-19T10:35:06;10.70;;;3.08;;
11490;SDS011;5802;52.832;4.758;2023-09-19T10:37:34;11.85;;;3.05;;
11490;SDS011;5802;52.832;4.758;2023-09-19T10:40:03;15.98;;;3.58;;
11490;SDS011;5802;52.832;4.758;2023-09-19T10:42:35;9.43;;;3.15;;
11490;SDS011;5802;52.832;4.758;2023-09-19T10:45:06;11.05;;;2.70;;
11490;SDS011;5802;52.832;4.758;2023-09-19T10:47:38;12.77;;;2.78;;
11490;SDS011;5802;52.832;4.758;2023-09-19T10:50:05;15.88;;;3.08;;
11490;SDS011;5802;52.832;4.758;2023-09-19T10:52:38;10.95;;;3.08;;
11490;SDS011;5802;52.832;4.758;2023-09-19T10:55:08;9.10;;;2.92;;
11490;SDS011;5802;52.832;4.758;2023-09-19T10:57:37;13.25;;;2.83;;
11490;SDS011;5802;52.832;4.758;2023-09-19T11:00:05;9.40;;;2.55;;
11490;SDS011;5802;52.832;4.758;2023-09-19T11:05:43;6.45;;;2.42;;
11490;SDS011;5802;52.832;4.758;2023-09-19T11:08:28;8.25;;;2.47;;
11490;SDS011;5802;52.832;4.758;2023-09-19T11:10:55;9.35;;;2.55;;
11490;SDS011;5802;52.832;4.758;2023-09-19T11:13:26;11.38;;;2.58;;
11490;SDS011;5802;52.832;4.758;2023-09-19T11:18:52;5.95;;;1.90;;
11490;SDS011;5802;52.832;4.758;2023-09-19T11:21:41;13.13;;;2.40;;
11490;SDS011;5802;52.832;4.758;2023-09-19T11:24:29;8.38;;;2.28;;
11490;SDS011;5802;52.832;4.758;2023-09-19T11:27:14;8.75;;;2.40;;
11490;SDS011;5802;52.832;4.758;2023-09-19T11:29:44;8.13;;;2.22;;
11490;SDS011;5802;52.832;4.758;2023-09-19T11:32:12;6.00;;;2.13;;
11490;SDS011;5802;52.832;4.758;2023-09-19T11:34:41;7.93;;;2.28;;
11490;SDS011;5802;52.832;4.758;2023-09-19T11:40:44;10.23;;;2.63;;
11490;SDS011;5802;52.832;4.758;2023-09-19T11:43:32;8.57;;;2.30;;
11490;SDS011;5802;52.832;4.758;2023-09-19T11:46:09;9.70;;;2.70;;
11490;SDS011;5802;52.832;4.758;2023-09-19T11:48:37;9.07;;;2.22;;
11490;SDS011;5802;52.832;4.758;2023-09-19T11:51:15;8.43;;;2.67;;
11490;SDS011;5802;52.832;4.758;2023-09-19T11:53:51;11.60;;;2.65;;
11490;SDS011;5802;52.832;4.758;2023-09-19T11:56:19;11.20;;;2.80;;
11490;SDS011;5802;52.832;4.758;2023-09-19T11:58:49;10.13;;;3.03;;
11490;SDS011;5802;52.832;4.758;2023-09-19T12:01:22;8.88;;;2.60;;
11490;SDS011;5802;52.832;4.758;2023-09-19T12:03:54;11.93;;;2.72;;
11490;SDS011;5802;52.832;4.758;2023-09-19T12:06:23;10.07;;;2.50;;
11490;SDS011;5802;52.832;4.758;2023-09-19T12:08:50;8.90;;;2.63;;
11490;SDS011;5802;52.832;4.758;2023-09-19T12:11:19;13.77;;;2.85;;
11490;SDS011;5802;52.832;4.758;2023-09-19T12:13:48;10.63;;;2.78;;
11490;SDS011;5802;52.832;4.758;2023-09-19T12:16:16;11.60;;;2.95;;
11490;SDS011;5802;52.832;4.758;2023-09-19T12:18:48;14.75;;;3.33;;
11490;SDS011;5802;52.832;4.758;2023-09-19T12:21:25;11.10;;;3.47;;
11490;SDS011;5802;52.832;4.758;2023-09-19T12:26:42;9.27;;;3.10;;
11490;SDS011;5802;52.832;4.758;2023-09-19T12:29:11;11.13;;;2.92;;
11490;SDS011;5802;52.832;4.758;2023-09-19T12:31:47;14.98;;;3.40;;
11490;SDS011;5802;52.832;4.758;2023-09-19T12:34:22;11.27;;;2.67;;
11490;SDS011;5802;52.832;4.758;2023-09-19T12:37:03;8.70;;;2.95;;
11490;SDS011;5802;52.832;4.758;2023-09-19T12:39:31;10.10;;;3.08;;
11490;SDS011;5802;52.832;4.758;2023-09-19T12:41:58;11.27;;;3.20;;
11490;SDS011;5802;52.832;4.758;2023-09-19T12:44:25;9.65;;;3.05;;
11490;SDS011;5802;52.832;4.758;2023-09-19T12:46:51;12.85;;;3.25;;
11490;SDS011;5802;52.832;4.758;2023-09-19T12:49:19;11.05;;;3.55;;
11490;SDS011;5802;52.832;4.758;2023-09-19T12:51:48;19.25;;;3.55;;
11490;SDS011;5802;52.832;4.758;2023-09-19T12:54:15;11.50;;;3.83;;
11490;SDS011;5802;52.832;4.758;2023-09-19T12:56:43;11.95;;;3.05;;
11490;SDS011;5802;52.832;4.758;2023-09-19T12:59:11;7.90;;;2.78;;
11490;SDS011;5802;52.832;4.758;2023-09-19T13:01:39;13.88;;;3.47;;
11490;SDS011;5802;52.832;4.758;2023-09-19T13:04:10;9.70;;;3.22;;
11490;SDS011;5802;52.832;4.758;2023-09-19T13:06:41;11.10;;;3.60;;
11490;SDS011;5802;52.832;4.758;2023-09-19T13:09:09;9.07;;;3.40;;
11490;SDS011;5802;52.832;4.758;2023-09-19T13:11:36;8.32;;;3.60;;
11490;SDS011;5802;52.832;4.758;2023-09-19T13:14:18;11.63;;;3.65;;
11490;SDS011;5802;52.832;4.758;2023-09-19T13:16:53;9.68;;;3.10;;
11490;SDS011;5802;52.832;4.758;2023-09-19T13:19:34;11.93;;;3.90;;
11490;SDS011;5802;52.832;4.758;2023-09-19T13:22:07;15.30;;;3.80;;
11490;SDS011;5802;52.832;4.758;2023-09-19T13:25:04;10.40;;;3.20;;
11490;SDS011;5802;52.832;4.758;2023-09-19T13:27:33;12.43;;;3.78;;
11490;SDS011;5802;52.832;4.758;2023-09-19T13:29:59;14.30;;;4.10;;
11490;SDS011;5802;52.832;4.758;2023-09-19T13:32:26;10.27;;;3.33;;
11490;SDS011;5802;52.832;4.758;2023-09-19T13:34:53;15.57;;;3.72;;
11490;SDS011;5802;52.832;4.758;2023-09-19T13:37:21;14.18;;;4.20;;
11490;SDS011;5802;52.832;4.758;2023-09-19T13:39:48;9.25;;;3.30;;
11490;SDS011;5802;52.832;4.758;2023-09-19T13:42:14;13.82;;;3.33;;
11490;SDS011;5802;52.832;4.758;2023-09-19T13:44:43;11.50;;;3.30;;
11490;SDS011;5802;52.832;4.758;2023-09-19T13:47:12;11.40;;;3.92;;
11490;SDS011;5802;52.832;4.758;2023-09-19T13:49:40;14.38;;;3.85;;
11490;SDS011;5802;52.832;4.758;2023-09-19T13:52:07;11.45;;;3.40;;
11490;SDS011;5802;52.832;4.758;2023-09-19T13:54:36;9.23;;;3.22;;
11490;SDS011;5802;52.832;4.758;2023-09-19T13:57:03;11.10;;;3.42;;
11490;SDS011;5802;52.832;4.758;2023-09-19T13:59:30;12.20;;;3.78;;
11490;SDS011;5802;52.832;4.758;2023-09-19T14:01:57;11.13;;;3.90;;
11490;SDS011;5802;52.832;4.758;2023-09-19T14:04:23;14.43;;;3.20;;
11490;SDS011;5802;52.832;4.758;2023-09-19T14:06:50;11.82;;;4.05;;
11490;SDS011;5802;52.832;4.758;2023-09-19T14:09:17;11.60;;;3.65;;
11490;SDS011;5802;52.832;4.758;2023-09-19T14:11:45;13.93;;;3.75;;
11490;SDS011;5802;52.832;4.758;2023-09-19T14:14:13;17.20;;;4.05;;
11490;SDS011;5802;52.832;4.758;2023-09-19T14:16:40;12.38;;;3.88;;
11490;SDS011;5802;52.832;4.758;2023-09-19T14:19:07;15.30;;;4.00;;
11490;SDS011;5802;52.832;4.758;2023-09-19T14:21:34;13.73;;;4.20;;
11490;SDS011;5802;52.832;4.758;2023-09-19T14:24:01;17.15;;;4.32;;
11490;SDS011;5802;52.832;4.758;2023-09-19T14:26:28;13.68;;;3.90;;
11490;SDS011;5802;52.832;4.758;2023-09-19T14:28:56;12.35;;;4.55;;
11490;SDS011;5802;52.832;4.758;2023-09-19T14:31:23;12.48;;;3.97;;
11490;SDS011;5802;52.832;4.758;2023-09-19T14:33:53;11.45;;;3.95;;
11490;SDS011;5802;52.832;4.758;2023-09-19T14:36:20;11.75;;;3.67;;
11490;SDS011;5802;52.832;4.758;2023-09-19T14:38:47;10.10;;;4.20;;
11490;SDS011;5802;52.832;4.758;2023-09-19T14:41:19;17.50;;;4.28;;
11490;SDS011;5802;52.832;4.758;2023-09-19T14:43:45;12.38;;;3.95;;
11490;SDS011;5802;52.832;4.758;2023-09-19T14:46:14;15.20;;;4.03;;
11490;SDS011;5802;52.832;4.758;2023-09-19T14:48:41;10.80;;;3.80;;
11490;SDS011;5802;52.832;4.758;2023-09-19T14:51:09;11.45;;;3.90;;
11490;SDS011;5802;52.832;4.758;2023-09-19T14:53:37;14.30;;;3.88;;
11490;SDS011;5802;52.832;4.758;2023-09-19T14:56:04;11.15;;;3.85;;
11490;SDS011;5802;52.832;4.758;2023-09-19T14:58:32;11.82;;;3.80;;
11490;SDS011;5802;52.832;4.758;2023-09-19T15:01:03;11.15;;;3.92;;
11490;SDS011;5802;52.832;4.758;2023-09-19T15:03:31;10.68;;;3.53;;
11490;SDS011;5802;52.832;4.758;2023-09-19T15:05:59;10.68;;;3.47;;
11490;SDS011;5802;52.832;4.758;2023-09-19T15:08:27;14.48;;;4.20;;
11490;SDS011;5802;52.832;4.758;2023-09-19T15:10:53;13.35;;;3.60;;
11490;SDS011;5802;52.832;4.758;2023-09-19T15:13:20;9.50;;;3.40;;
11490;SDS011;5802;52.832;4.758;2023-09-19T15:15:48;12.70;;;3.70;;
11490;SDS011;5802;52.832;4.758;2023-09-19T15:18:15;12.18;;;3.53;;
11490;SDS011;5802;52.832;4.758;2023-09-19T15:20:43;11.18;;;3.75;;
11490;SDS011;5802;52.832;4.758;2023-09-19T15:23:10;13.10;;;3.80;;
11490;SDS011;5802;52.832;4.758;2023-09-19T15:25:38;9.95;;;3.03;;